Ajman, United Arab Emirates
Current Conditions -  °F | °C
As of 11:00 AM on Saturday 25 Oct 2014 (Local Time) from OMSJ Reporting Station
Clear Clear  
Wind Chill: 90°   Ceiling: Unl
Heat Index: 93°   Visibility: 6mi
Dew Point: 68°   Wind: 2mph
Humidity: 49%   Direction: NA
Pressure: 29.88"   Gusts: NA
Location:  25.42°N, 55.43°E
Report Text: OMSJ 250700Z VRB02KT CAVOK 32/20 Q1012
Loading
Personal Weather Stations






























Interactive Weather Map
Tropical Storm Tracking
New forecast layout! Learn more

10-Day Weather Forecast

Advertisements
Track Severe Weather on mobile